sensor_id;sensor_type;location;lat;lon;timestamp;P1;durP1;ratioP1;P2;durP2;ratioP2
66087;SDS011;52872;52.994;6.940;2023-04-16T00:01:24;50.35;;;26.08;;
66087;SDS011;52872;52.994;6.940;2023-04-16T00:03:51;65.38;;;29.55;;
66087;SDS011;52872;52.994;6.940;2023-04-16T00:06:18;49.67;;;24.35;;
66087;SDS011;52872;52.994;6.940;2023-04-16T00:08:45;58.25;;;27.40;;
66087;SDS011;52872;52.994;6.940;2023-04-16T00:11:12;66.90;;;29.23;;
66087;SDS011;52872;52.994;6.940;2023-04-16T00:13:39;66.05;;;30.42;;
66087;SDS011;52872;52.994;6.940;2023-04-16T00:16:06;63.88;;;28.13;;
66087;SDS011;52872;52.994;6.940;2023-04-16T00:18:33;61.05;;;30.45;;
66087;SDS011;52872;52.994;6.940;2023-04-16T00:21:01;64.43;;;29.70;;
66087;SDS011;52872;52.994;6.940;2023-04-16T00:23:27;61.53;;;26.25;;
66087;SDS011;52872;52.994;6.940;2023-04-16T00:25:54;56.03;;;25.25;;
66087;SDS011;52872;52.994;6.940;2023-04-16T00:28:25;62.08;;;27.60;;
66087;SDS011;52872;52.994;6.940;2023-04-16T00:30:53;56.97;;;26.48;;
66087;SDS011;52872;52.994;6.940;2023-04-16T00:33:21;63.58;;;27.98;;
66087;SDS011;52872;52.994;6.940;2023-04-16T00:35:49;63.28;;;28.40;;
66087;SDS011;52872;52.994;6.940;2023-04-16T00:38:16;49.20;;;23.30;;
66087;SDS011;52872;52.994;6.940;2023-04-16T00:40:43;58.42;;;28.92;;
66087;SDS011;52872;52.994;6.940;2023-04-16T00:43:10;60.88;;;27.60;;
66087;SDS011;52872;52.994;6.940;2023-04-16T00:45:45;64.55;;;27.85;;
66087;SDS011;52872;52.994;6.940;2023-04-16T00:48:12;56.95;;;26.63;;
66087;SDS011;52872;52.994;6.940;2023-04-16T00:50:39;59.40;;;28.48;;
66087;SDS011;52872;52.994;6.940;2023-04-16T00:53:07;48.78;;;21.98;;
66087;SDS011;52872;52.994;6.940;2023-04-16T00:55:34;65.57;;;27.40;;
66087;SDS011;52872;52.994;6.940;2023-04-16T00:58:02;67.25;;;28.25;;
66087;SDS011;52872;52.994;6.940;2023-04-16T01:00:29;80.13;;;27.75;;
66087;SDS011;52872;52.994;6.940;2023-04-16T01:02:56;69.38;;;28.88;;
66087;SDS011;52872;52.994;6.940;2023-04-16T01:05:25;99.03;;;29.60;;
66087;SDS011;52872;52.994;6.940;2023-04-16T01:07:52;69.75;;;28.60;;
66087;SDS011;52872;52.994;6.940;2023-04-16T01:10:23;80.35;;;28.00;;
66087;SDS011;52872;52.994;6.940;2023-04-16T01:12:50;85.75;;;30.17;;
66087;SDS011;52872;52.994;6.940;2023-04-16T01:15:17;62.25;;;25.10;;
66087;SDS011;52872;52.994;6.940;2023-04-16T01:17:44;64.10;;;24.63;;
66087;SDS011;52872;52.994;6.940;2023-04-16T01:20:12;89.35;;;28.25;;
66087;SDS011;52872;52.994;6.940;2023-04-16T01:22:39;106.95;;;29.23;;
66087;SDS011;52872;52.994;6.940;2023-04-16T01:25:06;119.32;;;28.23;;
66087;SDS011;52872;52.994;6.940;2023-04-16T01:27:33;114.40;;;27.33;;
66087;SDS011;52872;52.994;6.940;2023-04-16T01:30:00;97.65;;;27.42;;
66087;SDS011;52872;52.994;6.940;2023-04-16T01:32:38;78.07;;;27.90;;
66087;SDS011;52872;52.994;6.940;2023-04-16T01:35:05;84.60;;;24.38;;
66087;SDS011;52872;52.994;6.940;2023-04-16T01:37:32;78.07;;;27.48;;
66087;SDS011;52872;52.994;6.940;2023-04-16T01:39:59;86.03;;;30.02;;
66087;SDS011;52872;52.994;6.940;2023-04-16T01:42:27;68.90;;;26.10;;
66087;SDS011;52872;52.994;6.940;2023-04-16T01:44:54;79.68;;;30.63;;
66087;SDS011;52872;52.994;6.940;2023-04-16T01:47:21;61.83;;;24.63;;
66087;SDS011;52872;52.994;6.940;2023-04-16T01:49:48;81.68;;;27.38;;
66087;SDS011;52872;52.994;6.940;2023-04-16T01:52:15;75.18;;;29.05;;
66087;SDS011;52872;52.994;6.940;2023-04-16T01:54:42;95.00;;;30.15;;
66087;SDS011;52872;52.994;6.940;2023-04-16T01:57:09;96.75;;;29.40;;
66087;SDS011;52872;52.994;6.940;2023-04-16T01:59:36;79.65;;;24.88;;
66087;SDS011;52872;52.994;6.940;2023-04-16T02:02:08;94.55;;;27.17;;
66087;SDS011;52872;52.994;6.940;2023-04-16T02:04:38;119.23;;;33.53;;
66087;SDS011;52872;52.994;6.940;2023-04-16T02:07:07;109.75;;;33.03;;
66087;SDS011;52872;52.994;6.940;2023-04-16T02:09:35;88.90;;;30.75;;
66087;SDS011;52872;52.994;6.940;2023-04-16T02:12:06;108.10;;;31.27;;
66087;SDS011;52872;52.994;6.940;2023-04-16T02:14:34;96.28;;;30.98;;
66087;SDS011;52872;52.994;6.940;2023-04-16T02:17:01;104.80;;;27.80;;
66087;SDS011;52872;52.994;6.940;2023-04-16T02:19:36;97.15;;;31.95;;
66087;SDS011;52872;52.994;6.940;2023-04-16T02:22:03;98.00;;;32.40;;
66087;SDS011;52872;52.994;6.940;2023-04-16T02:24:30;85.43;;;30.80;;
66087;SDS011;52872;52.994;6.940;2023-04-16T02:27:00;105.22;;;33.78;;
66087;SDS011;52872;52.994;6.940;2023-04-16T02:29:28;134.70;;;36.95;;
66087;SDS011;52872;52.994;6.940;2023-04-16T02:32:02;77.55;;;30.63;;
66087;SDS011;52872;52.994;6.940;2023-04-16T02:34:31;83.15;;;32.55;;
66087;SDS011;52872;52.994;6.940;2023-04-16T02:37:00;79.00;;;31.83;;
66087;SDS011;52872;52.994;6.940;2023-04-16T02:39:27;82.72;;;32.97;;
66087;SDS011;52872;52.994;6.940;2023-04-16T02:41:54;75.78;;;32.80;;
66087;SDS011;52872;52.994;6.940;2023-04-16T02:44:21;83.78;;;29.98;;
66087;SDS011;52872;52.994;6.940;2023-04-16T02:46:48;84.53;;;34.90;;
66087;SDS011;52872;52.994;6.940;2023-04-16T02:49:15;84.22;;;33.25;;
66087;SDS011;52872;52.994;6.940;2023-04-16T02:51:42;79.97;;;32.67;;
66087;SDS011;52872;52.994;6.940;2023-04-16T02:54:09;72.55;;;30.15;;
66087;SDS011;52872;52.994;6.940;2023-04-16T02:56:36;73.10;;;32.35;;
66087;SDS011;52872;52.994;6.940;2023-04-16T02:59:03;66.43;;;31.80;;
66087;SDS011;52872;52.994;6.940;2023-04-16T03:01:30;65.00;;;30.67;;
66087;SDS011;52872;52.994;6.940;2023-04-16T03:03:57;76.38;;;31.40;;
66087;SDS011;52872;52.994;6.940;2023-04-16T03:06:25;66.68;;;31.40;;
66087;SDS011;52872;52.994;6.940;2023-04-16T03:08:52;59.33;;;29.38;;
66087;SDS011;52872;52.994;6.940;2023-04-16T03:11:19;53.58;;;26.75;;
66087;SDS011;52872;52.994;6.940;2023-04-16T03:13:46;66.25;;;33.97;;
66087;SDS011;52872;52.994;6.940;2023-04-16T03:16:13;65.47;;;30.08;;
66087;SDS011;52872;52.994;6.940;2023-04-16T03:18:40;61.25;;;29.45;;
66087;SDS011;52872;52.994;6.940;2023-04-16T03:21:08;61.65;;;30.67;;
66087;SDS011;52872;52.994;6.940;2023-04-16T03:23:36;60.60;;;30.08;;
66087;SDS011;52872;52.994;6.940;2023-04-16T03:26:03;66.32;;;30.73;;
66087;SDS011;52872;52.994;6.940;2023-04-16T03:28:30;70.28;;;32.75;;
66087;SDS011;52872;52.994;6.940;2023-04-16T03:30:57;58.30;;;30.80;;
66087;SDS011;52872;52.994;6.940;2023-04-16T03:33:24;54.15;;;23.27;;
66087;SDS011;52872;52.994;6.940;2023-04-16T03:35:55;64.90;;;29.67;;
66087;SDS011;52872;52.994;6.940;2023-04-16T03:38:25;69.07;;;29.98;;
66087;SDS011;52872;52.994;6.940;2023-04-16T03:40:54;67.40;;;31.73;;
66087;SDS011;52872;52.994;6.940;2023-04-16T03:43:22;64.93;;;31.83;;
66087;SDS011;52872;52.994;6.940;2023-04-16T03:45:49;56.47;;;29.42;;
66087;SDS011;52872;52.994;6.940;2023-04-16T03:48:19;68.20;;;30.35;;
66087;SDS011;52872;52.994;6.940;2023-04-16T03:50:46;60.22;;;29.10;;
66087;SDS011;52872;52.994;6.940;2023-04-16T03:53:15;53.67;;;27.88;;
66087;SDS011;52872;52.994;6.940;2023-04-16T03:55:43;67.35;;;29.60;;
66087;SDS011;52872;52.994;6.940;2023-04-16T03:58:10;60.40;;;29.60;;
66087;SDS011;52872;52.994;6.940;2023-04-16T04:00:40;61.55;;;31.13;;
66087;SDS011;52872;52.994;6.940;2023-04-16T04:03:12;67.45;;;31.85;;
66087;SDS011;52872;52.994;6.940;2023-04-16T04:05:43;65.35;;;31.67;;
66087;SDS011;52872;52.994;6.940;2023-04-16T04:08:13;71.55;;;34.00;;
66087;SDS011;52872;52.994;6.940;2023-04-16T04:10:40;72.90;;;34.47;;
66087;SDS011;52872;52.994;6.940;2023-04-16T04:13:09;79.10;;;35.03;;
66087;SDS011;52872;52.994;6.940;2023-04-16T04:15:36;65.75;;;31.45;;
66087;SDS011;52872;52.994;6.940;2023-04-16T04:18:03;85.65;;;34.05;;
66087;SDS011;52872;52.994;6.940;2023-04-16T04:20:30;74.30;;;33.05;;
66087;SDS011;52872;52.994;6.940;2023-04-16T04:22:57;64.22;;;30.77;;
66087;SDS011;52872;52.994;6.940;2023-04-16T04:25:25;67.20;;;30.40;;
66087;SDS011;52872;52.994;6.940;2023-04-16T04:27:52;61.58;;;30.75;;
66087;SDS011;52872;52.994;6.940;2023-04-16T04:30:19;62.95;;;30.65;;
66087;SDS011;52872;52.994;6.940;2023-04-16T04:32:46;73.90;;;32.58;;
66087;SDS011;52872;52.994;6.940;2023-04-16T04:35:14;69.18;;;32.20;;
66087;SDS011;52872;52.994;6.940;2023-04-16T04:37:41;67.80;;;32.83;;
66087;SDS011;52872;52.994;6.940;2023-04-16T04:42:43;70.05;;;31.42;;
66087;SDS011;52872;52.994;6.940;2023-04-16T04:45:10;66.13;;;31.58;;
66087;SDS011;52872;52.994;6.940;2023-04-16T04:47:39;64.20;;;30.70;;
66087;SDS011;52872;52.994;6.940;2023-04-16T04:50:06;58.75;;;29.77;;
66087;SDS011;52872;52.994;6.940;2023-04-16T04:52:33;65.63;;;29.88;;
66087;SDS011;52872;52.994;6.940;2023-04-16T04:55:01;71.82;;;31.25;;
66087;SDS011;52872;52.994;6.940;2023-04-16T04:57:29;68.07;;;30.77;;
66087;SDS011;52872;52.994;6.940;2023-04-16T04:59:56;59.88;;;30.23;;
66087;SDS011;52872;52.994;6.940;2023-04-16T05:02:30;64.70;;;32.15;;
66087;SDS011;52872;52.994;6.940;2023-04-16T05:04:57;67.65;;;31.63;;
66087;SDS011;52872;52.994;6.940;2023-04-16T05:07:24;69.53;;;32.50;;
66087;SDS011;52872;52.994;6.940;2023-04-16T05:09:51;65.05;;;31.58;;
66087;SDS011;52872;52.994;6.940;2023-04-16T05:12:18;65.55;;;31.02;;
66087;SDS011;52872;52.994;6.940;2023-04-16T05:14:46;61.78;;;31.52;;
66087;SDS011;52872;52.994;6.940;2023-04-16T05:17:12;62.47;;;31.17;;
66087;SDS011;52872;52.994;6.940;2023-04-16T05:19:39;59.67;;;28.15;;
66087;SDS011;52872;52.994;6.940;2023-04-16T05:22:06;55.28;;;29.70;;
66087;SDS011;52872;52.994;6.940;2023-04-16T05:24:33;61.47;;;31.42;;
66087;SDS011;52872;52.994;6.940;2023-04-16T05:27:00;59.70;;;29.40;;
66087;SDS011;52872;52.994;6.940;2023-04-16T05:29:27;55.58;;;29.98;;
66087;SDS011;52872;52.994;6.940;2023-04-16T05:31:54;53.63;;;29.20;;
66087;SDS011;52872;52.994;6.940;2023-04-16T05:34:21;46.67;;;26.90;;
66087;SDS011;52872;52.994;6.940;2023-04-16T05:36:48;48.80;;;28.10;;
66087;SDS011;52872;52.994;6.940;2023-04-16T05:39:15;55.45;;;27.17;;
66087;SDS011;52872;52.994;6.940;2023-04-16T05:41:42;43.42;;;26.13;;
66087;SDS011;52872;52.994;6.940;2023-04-16T05:44:09;41.42;;;25.42;;
66087;SDS011;52872;52.994;6.940;2023-04-16T05:46:36;49.47;;;25.45;;
66087;SDS011;52872;52.994;6.940;2023-04-16T05:49:03;46.33;;;25.45;;
66087;SDS011;52872;52.994;6.940;2023-04-16T05:51:30;44.08;;;24.65;;
66087;SDS011;52872;52.994;6.940;2023-04-16T05:53:57;50.38;;;25.08;;
66087;SDS011;52872;52.994;6.940;2023-04-16T05:56:24;52.05;;;26.95;;
66087;SDS011;52872;52.994;6.940;2023-04-16T05:58:51;43.47;;;24.95;;
66087;SDS011;52872;52.994;6.940;2023-04-16T06:01:18;41.55;;;25.10;;
66087;SDS011;52872;52.994;6.940;2023-04-16T06:03:46;51.45;;;25.75;;
66087;SDS011;52872;52.994;6.940;2023-04-16T06:06:13;40.67;;;25.23;;
66087;SDS011;52872;52.994;6.940;2023-04-16T06:08:40;37.42;;;23.55;;
66087;SDS011;52872;52.994;6.940;2023-04-16T06:11:07;36.42;;;22.45;;
66087;SDS011;52872;52.994;6.940;2023-04-16T06:13:34;36.63;;;23.05;;
66087;SDS011;52872;52.994;6.940;2023-04-16T06:16:01;34.53;;;21.67;;
66087;SDS011;52872;52.994;6.940;2023-04-16T06:18:28;33.85;;;22.52;;
66087;SDS011;52872;52.994;6.940;2023-04-16T06:20:55;34.72;;;22.88;;
66087;SDS011;52872;52.994;6.940;2023-04-16T06:23:24;34.15;;;23.00;;
66087;SDS011;52872;52.994;6.940;2023-04-16T06:25:50;42.53;;;23.83;;
66087;SDS011;52872;52.994;6.940;2023-04-16T06:28:18;36.65;;;24.17;;
66087;SDS011;52872;52.994;6.940;2023-04-16T06:30:45;39.03;;;24.77;;
66087;SDS011;52872;52.994;6.940;2023-04-16T06:33:12;32.60;;;24.02;;
66087;SDS011;52872;52.994;6.940;2023-04-16T06:35:39;35.55;;;24.35;;
66087;SDS011;52872;52.994;6.940;2023-04-16T06:38:06;34.22;;;22.65;;
66087;SDS011;52872;52.994;6.940;2023-04-16T06:40:33;40.15;;;25.23;;
66087;SDS011;52872;52.994;6.940;2023-04-16T06:43:02;38.67;;;23.38;;
66087;SDS011;52872;52.994;6.940;2023-04-16T06:45:29;37.17;;;23.65;;
66087;SDS011;52872;52.994;6.940;2023-04-16T06:47:56;38.38;;;22.98;;
66087;SDS011;52872;52.994;6.940;2023-04-16T06:50:24;40.25;;;23.80;;
66087;SDS011;52872;52.994;6.940;2023-04-16T06:52:53;36.50;;;23.13;;
66087;SDS011;52872;52.994;6.940;2023-04-16T06:55:21;36.20;;;22.45;;
66087;SDS011;52872;52.994;6.940;2023-04-16T06:57:48;39.97;;;24.00;;
66087;SDS011;52872;52.994;6.940;2023-04-16T07:00:14;40.30;;;25.65;;
66087;SDS011;52872;52.994;6.940;2023-04-16T07:02:41;40.83;;;24.63;;
66087;SDS011;52872;52.994;6.940;2023-04-16T07:05:08;37.00;;;23.88;;
66087;SDS011;52872;52.994;6.940;2023-04-16T07:07:36;41.78;;;25.00;;
66087;SDS011;52872;52.994;6.940;2023-04-16T07:10:03;37.15;;;22.85;;
66087;SDS011;52872;52.994;6.940;2023-04-16T07:12:31;39.28;;;24.17;;
66087;SDS011;52872;52.994;6.940;2023-04-16T07:14:58;40.03;;;23.15;;
66087;SDS011;52872;52.994;6.940;2023-04-16T07:17:25;40.33;;;23.80;;
66087;SDS011;52872;52.994;6.940;2023-04-16T07:19:52;38.20;;;25.92;;
66087;SDS011;52872;52.994;6.940;2023-04-16T07:22:19;36.25;;;24.23;;
66087;SDS011;52872;52.994;6.940;2023-04-16T07:24:46;41.83;;;24.17;;
66087;SDS011;52872;52.994;6.940;2023-04-16T07:27:13;43.65;;;24.10;;
66087;SDS011;52872;52.994;6.940;2023-04-16T07:29:40;38.65;;;24.23;;
66087;SDS011;52872;52.994;6.940;2023-04-16T07:32:07;39.05;;;23.05;;
66087;SDS011;52872;52.994;6.940;2023-04-16T07:34:34;35.28;;;22.00;;
66087;SDS011;52872;52.994;6.940;2023-04-16T07:37:01;37.55;;;23.52;;
66087;SDS011;52872;52.994;6.940;2023-04-16T07:39:27;39.78;;;23.35;;
66087;SDS011;52872;52.994;6.940;2023-04-16T07:41:54;30.73;;;19.45;;
66087;SDS011;52872;52.994;6.940;2023-04-16T07:44:21;37.47;;;22.45;;
66087;SDS011;52872;52.994;6.940;2023-04-16T07:46:48;35.80;;;22.45;;
66087;SDS011;52872;52.994;6.940;2023-04-16T07:49:15;36.60;;;21.90;;
66087;SDS011;52872;52.994;6.940;2023-04-16T07:51:42;35.30;;;19.83;;
66087;SDS011;52872;52.994;6.940;2023-04-16T07:54:09;39.55;;;22.80;;
66087;SDS011;52872;52.994;6.940;2023-04-16T07:56:36;40.55;;;22.25;;
66087;SDS011;52872;52.994;6.940;2023-04-16T07:59:03;36.25;;;21.65;;
66087;SDS011;52872;52.994;6.940;2023-04-16T08:01:44;35.20;;;20.25;;
66087;SDS011;52872;52.994;6.940;2023-04-16T08:04:11;45.92;;;23.08;;
66087;SDS011;52872;52.994;6.940;2023-04-16T08:06:39;41.05;;;22.77;;
66087;SDS011;52872;52.994;6.940;2023-04-16T08:09:06;37.88;;;21.27;;
66087;SDS011;52872;52.994;6.940;2023-04-16T08:11:33;40.45;;;21.55;;
66087;SDS011;52872;52.994;6.940;2023-04-16T08:14:00;36.65;;;18.50;;
66087;SDS011;52872;52.994;6.940;2023-04-16T08:16:27;34.90;;;21.60;;
66087;SDS011;52872;52.994;6.940;2023-04-16T08:18:54;32.83;;;19.88;;
66087;SDS011;52872;52.994;6.940;2023-04-16T08:21:21;33.85;;;21.58;;
66087;SDS011;52872;52.994;6.940;2023-04-16T08:23:48;30.38;;;18.80;;
66087;SDS011;52872;52.994;6.940;2023-04-16T08:26:15;29.73;;;19.58;;
66087;SDS011;52872;52.994;6.940;2023-04-16T08:28:42;31.58;;;18.58;;
66087;SDS011;52872;52.994;6.940;2023-04-16T08:31:09;21.92;;;14.95;;
66087;SDS011;52872;52.994;6.940;2023-04-16T08:33:36;29.88;;;18.05;;
66087;SDS011;52872;52.994;6.940;2023-04-16T08:36:03;27.67;;;17.25;;
66087;SDS011;52872;52.994;6.940;2023-04-16T08:38:30;26.30;;;17.38;;
66087;SDS011;52872;52.994;6.940;2023-04-16T08:40:59;26.77;;;18.25;;
66087;SDS011;52872;52.994;6.940;2023-04-16T08:43:28;25.50;;;17.85;;
66087;SDS011;52872;52.994;6.940;2023-04-16T08:45:59;25.17;;;15.45;;
66087;SDS011;52872;52.994;6.940;2023-04-16T08:48:28;21.02;;;16.40;;
66087;SDS011;52872;52.994;6.940;2023-04-16T08:50:59;24.67;;;17.75;;
66087;SDS011;52872;52.994;6.940;2023-04-16T08:53:47;23.42;;;16.92;;
66087;SDS011;52872;52.994;6.940;2023-04-16T08:56:19;23.30;;;15.68;;
66087;SDS011;52872;52.994;6.940;2023-04-16T08:58:48;20.42;;;16.65;;
66087;SDS011;52872;52.994;6.940;2023-04-16T09:01:17;23.33;;;16.55;;
66087;SDS011;52872;52.994;6.940;2023-04-16T09:03:46;26.33;;;16.88;;
66087;SDS011;52872;52.994;6.940;2023-04-16T09:06:14;25.85;;;16.80;;
66087;SDS011;52872;52.994;6.940;2023-04-16T09:08:45;21.15;;;14.98;;
66087;SDS011;52872;52.994;6.940;2023-04-16T09:11:13;23.15;;;16.95;;
66087;SDS011;52872;52.994;6.940;2023-04-16T09:13:44;25.20;;;16.65;;
66087;SDS011;52872;52.994;6.940;2023-04-16T09:16:12;22.38;;;17.17;;
66087;SDS011;52872;52.994;6.940;2023-04-16T09:18:39;21.35;;;16.13;;
66087;SDS011;52872;52.994;6.940;2023-04-16T09:21:08;22.75;;;16.58;;
66087;SDS011;52872;52.994;6.940;2023-04-16T09:23:38;23.10;;;17.23;;
66087;SDS011;52872;52.994;6.940;2023-04-16T09:26:06;21.08;;;17.15;;
66087;SDS011;52872;52.994;6.940;2023-04-16T09:28:42;25.30;;;17.15;;
66087;SDS011;52872;52.994;6.940;2023-04-16T09:31:15;19.52;;;15.25;;
66087;SDS011;52872;52.994;6.940;2023-04-16T09:33:43;18.77;;;15.07;;
66087;SDS011;52872;52.994;6.940;2023-04-16T09:36:33;19.58;;;14.52;;
66087;SDS011;52872;52.994;6.940;2023-04-16T09:39:02;23.08;;;15.57;;
66087;SDS011;52872;52.994;6.940;2023-04-16T09:41:30;19.95;;;16.77;;
66087;SDS011;52872;52.994;6.940;2023-04-16T09:43:59;18.88;;;14.80;;
66087;SDS011;52872;52.994;6.940;2023-04-16T09:46:32;21.70;;;15.15;;
66087;SDS011;52872;52.994;6.940;2023-04-16T09:49:03;18.73;;;15.75;;
66087;SDS011;52872;52.994;6.940;2023-04-16T09:51:37;19.02;;;15.70;;
66087;SDS011;52872;52.994;6.940;2023-04-16T09:54:07;25.37;;;16.30;;
66087;SDS011;52872;52.994;6.940;2023-04-16T09:56:44;18.50;;;14.77;;
66087;SDS011;52872;52.994;6.940;2023-04-16T09:59:18;18.92;;;15.15;;
66087;SDS011;52872;52.994;6.940;2023-04-16T10:01:49;19.05;;;15.32;;
66087;SDS011;52872;52.994;6.940;2023-04-16T10:04:18;20.23;;;15.95;;
66087;SDS011;52872;52.994;6.940;2023-04-16T10:07:01;18.88;;;15.65;;
66087;SDS011;52872;52.994;6.940;2023-04-16T10:09:31;17.95;;;14.07;;
66087;SDS011;52872;52.994;6.940;2023-04-16T10:12:08;18.20;;;16.27;;
66087;SDS011;52872;52.994;6.940;2023-04-16T10:14:36;18.33;;;15.57;;
66087;SDS011;52872;52.994;6.940;2023-04-16T10:17:02;19.13;;;16.48;;
66087;SDS011;52872;52.994;6.940;2023-04-16T10:19:31;16.23;;;14.50;;
66087;SDS011;52872;52.994;6.940;2023-04-16T10:21:59;20.38;;;15.80;;
66087;SDS011;52872;52.994;6.940;2023-04-16T10:24:30;21.70;;;16.02;;
66087;SDS011;52872;52.994;6.940;2023-04-16T10:26:58;19.60;;;16.92;;
66087;SDS011;52872;52.994;6.940;2023-04-16T10:29:26;20.38;;;16.35;;
66087;SDS011;52872;52.994;6.940;2023-04-16T10:31:54;20.70;;;16.95;;
66087;SDS011;52872;52.994;6.940;2023-04-16T10:34:23;20.77;;;16.08;;
66087;SDS011;52872;52.994;6.940;2023-04-16T10:36:51;21.63;;;16.33;;
66087;SDS011;52872;52.994;6.940;2023-04-16T10:39:20;19.55;;;16.05;;
66087;SDS011;52872;52.994;6.940;2023-04-16T10:41:49;18.80;;;15.48;;
66087;SDS011;52872;52.994;6.940;2023-04-16T10:44:31;20.63;;;16.27;;
66087;SDS011;52872;52.994;6.940;2023-04-16T10:46:59;17.67;;;14.82;;
66087;SDS011;52872;52.994;6.940;2023-04-16T10:49:26;19.58;;;15.90;;
66087;SDS011;52872;52.994;6.940;2023-04-16T10:52:00;19.73;;;14.68;;
66087;SDS011;52872;52.994;6.940;2023-04-16T10:54:34;19.77;;;14.80;;
66087;SDS011;52872;52.994;6.940;2023-04-16T10:57:02;18.50;;;15.38;;
66087;SDS011;52872;52.994;6.940;2023-04-16T10:59:32;18.73;;;16.73;;
66087;SDS011;52872;52.994;6.940;2023-04-16T11:02:24;22.13;;;16.88;;
66087;SDS011;52872;52.994;6.940;2023-04-16T11:04:54;20.17;;;16.45;;
66087;SDS011;52872;52.994;6.940;2023-04-16T11:07:31;20.30;;;15.80;;
66087;SDS011;52872;52.994;6.940;2023-04-16T11:10:02;16.00;;;13.48;;
66087;SDS011;52872;52.994;6.940;2023-04-16T11:12:32;21.83;;;17.25;;
66087;SDS011;52872;52.994;6.940;2023-04-16T11:15:13;20.23;;;15.27;;
66087;SDS011;52872;52.994;6.940;2023-04-16T11:17:42;20.70;;;16.70;;
66087;SDS011;52872;52.994;6.940;2023-04-16T11:20:14;19.08;;;15.35;;
66087;SDS011;52872;52.994;6.940;2023-04-16T11:22:46;21.67;;;16.17;;
66087;SDS011;52872;52.994;6.940;2023-04-16T11:25:20;17.77;;;15.95;;
66087;SDS011;52872;52.994;6.940;2023-04-16T11:27:48;20.70;;;15.73;;
66087;SDS011;52872;52.994;6.940;2023-04-16T11:30:29;20.33;;;16.75;;
66087;SDS011;52872;52.994;6.940;2023-04-16T11:33:03;19.83;;;15.55;;
66087;SDS011;52872;52.994;6.940;2023-04-16T11:35:34;17.42;;;14.57;;
66087;SDS011;52872;52.994;6.940;2023-04-16T11:38:02;18.70;;;15.43;;
66087;SDS011;52872;52.994;6.940;2023-04-16T11:40:30;20.15;;;16.67;;
66087;SDS011;52872;52.994;6.940;2023-04-16T11:43:12;18.80;;;15.88;;
66087;SDS011;52872;52.994;6.940;2023-04-16T11:45:56;20.63;;;15.50;;
66087;SDS011;52872;52.994;6.940;2023-04-16T11:48:24;18.75;;;14.95;;
66087;SDS011;52872;52.994;6.940;2023-04-16T11:50:55;17.25;;;15.45;;
66087;SDS011;52872;52.994;6.940;2023-04-16T11:53:25;18.85;;;15.18;;
66087;SDS011;52872;52.994;6.940;2023-04-16T11:55:52;17.10;;;15.43;;
66087;SDS011;52872;52.994;6.940;2023-04-16T11:58:19;20.13;;;15.93;;
66087;SDS011;52872;52.994;6.940;2023-04-16T12:00:47;17.52;;;14.73;;
66087;SDS011;52872;52.994;6.940;2023-04-16T12:03:18;16.13;;;14.52;;
66087;SDS011;52872;52.994;6.940;2023-04-16T12:06:07;19.60;;;14.35;;
66087;SDS011;52872;52.994;6.940;2023-04-16T12:08:35;16.55;;;14.85;;
66087;SDS011;52872;52.994;6.940;2023-04-16T12:11:01;20.90;;;15.18;;
66087;SDS011;52872;52.994;6.940;2023-04-16T12:13:28;16.90;;;14.32;;
66087;SDS011;52872;52.994;6.940;2023-04-16T12:15:56;16.08;;;12.02;;
66087;SDS011;52872;52.994;6.940;2023-04-16T12:18:23;16.08;;;13.48;;
66087;SDS011;52872;52.994;6.940;2023-04-16T12:20:54;15.48;;;13.05;;
66087;SDS011;52872;52.994;6.940;2023-04-16T12:23:22;19.15;;;13.40;;
66087;SDS011;52872;52.994;6.940;2023-04-16T12:26:05;19.10;;;14.27;;
66087;SDS011;52872;52.994;6.940;2023-04-16T12:28:35;19.45;;;14.82;;
66087;SDS011;52872;52.994;6.940;2023-04-16T12:31:04;18.25;;;12.57;;
66087;SDS011;52872;52.994;6.940;2023-04-16T12:33:31;19.35;;;13.73;;
66087;SDS011;52872;52.994;6.940;2023-04-16T12:35:58;21.25;;;15.30;;
66087;SDS011;52872;52.994;6.940;2023-04-16T12:38:26;18.40;;;14.48;;
66087;SDS011;52872;52.994;6.940;2023-04-16T12:40:53;19.75;;;13.23;;
66087;SDS011;52872;52.994;6.940;2023-04-16T12:43:22;14.93;;;11.82;;
66087;SDS011;52872;52.994;6.940;2023-04-16T12:45:59;16.77;;;13.55;;
66087;SDS011;52872;52.994;6.940;2023-04-16T12:48:32;15.00;;;11.73;;
66087;SDS011;52872;52.994;6.940;2023-04-16T12:50:59;16.60;;;13.50;;
66087;SDS011;52872;52.994;6.940;2023-04-16T12:53:27;15.80;;;12.02;;
66087;SDS011;52872;52.994;6.940;2023-04-16T12:55:54;16.73;;;13.60;;
66087;SDS011;52872;52.994;6.940;2023-04-16T12:58:21;19.77;;;13.88;;
66087;SDS011;52872;52.994;6.940;2023-04-16T13:00:48;16.60;;;12.65;;
66087;SDS011;52872;52.994;6.940;2023-04-16T13:03:15;14.13;;;11.95;;
66087;SDS011;52872;52.994;6.940;2023-04-16T13:05:42;13.70;;;11.80;;
66087;SDS011;52872;52.994;6.940;2023-04-16T13:08:09;14.65;;;12.65;;
66087;SDS011;52872;52.994;6.940;2023-04-16T13:10:36;16.85;;;12.85;;
66087;SDS011;52872;52.994;6.940;2023-04-16T13:13:04;19.27;;;14.63;;
66087;SDS011;52872;52.994;6.940;2023-04-16T13:15:30;16.10;;;13.00;;
66087;SDS011;52872;52.994;6.940;2023-04-16T13:17:57;18.77;;;14.38;;
66087;SDS011;52872;52.994;6.940;2023-04-16T13:20:24;15.95;;;13.57;;
66087;SDS011;52872;52.994;6.940;2023-04-16T13:22:51;17.42;;;14.07;;
66087;SDS011;52872;52.994;6.940;2023-04-16T13:25:19;16.67;;;13.85;;
66087;SDS011;52872;52.994;6.940;2023-04-16T13:27:46;16.45;;;14.70;;
66087;SDS011;52872;52.994;6.940;2023-04-16T13:30:13;17.33;;;15.63;;
66087;SDS011;52872;52.994;6.940;2023-04-16T13:32:40;19.17;;;16.30;;
66087;SDS011;52872;52.994;6.940;2023-04-16T13:35:09;17.98;;;15.48;;
66087;SDS011;52872;52.994;6.940;2023-04-16T13:37:36;15.48;;;13.90;;
66087;SDS011;52872;52.994;6.940;2023-04-16T13:40:03;19.75;;;15.90;;
66087;SDS011;52872;52.994;6.940;2023-04-16T13:42:31;18.25;;;15.40;;
66087;SDS011;52872;52.994;6.940;2023-04-16T13:44:58;16.35;;;13.88;;
66087;SDS011;52872;52.994;6.940;2023-04-16T13:47:25;18.13;;;14.15;;
66087;SDS011;52872;52.994;6.940;2023-04-16T13:49:52;16.73;;;14.73;;
66087;SDS011;52872;52.994;6.940;2023-04-16T13:52:18;17.65;;;15.90;;
66087;SDS011;52872;52.994;6.940;2023-04-16T13:54:45;17.52;;;15.48;;
66087;SDS011;52872;52.994;6.940;2023-04-16T13:57:18;17.27;;;15.30;;
66087;SDS011;52872;52.994;6.940;2023-04-16T13:59:45;18.30;;;15.55;;
66087;SDS011;52872;52.994;6.940;2023-04-16T14:02:12;18.42;;;16.50;;
66087;SDS011;52872;52.994;6.940;2023-04-16T14:04:40;20.92;;;16.02;;
66087;SDS011;52872;52.994;6.940;2023-04-16T14:07:07;19.25;;;16.90;;
66087;SDS011;52872;52.994;6.940;2023-04-16T14:09:34;16.73;;;15.00;;
66087;SDS011;52872;52.994;6.940;2023-04-16T14:12:01;17.23;;;13.30;;
66087;SDS011;52872;52.994;6.940;2023-04-16T14:14:28;19.05;;;16.92;;
66087;SDS011;52872;52.994;6.940;2023-04-16T14:16:56;18.42;;;15.38;;
66087;SDS011;52872;52.994;6.940;2023-04-16T14:19:24;23.05;;;17.77;;
66087;SDS011;52872;52.994;6.940;2023-04-16T14:21:51;21.10;;;16.50;;
66087;SDS011;52872;52.994;6.940;2023-04-16T14:24:18;21.98;;;16.25;;
66087;SDS011;52872;52.994;6.940;2023-04-16T14:26:45;22.88;;;16.08;;
66087;SDS011;52872;52.994;6.940;2023-04-16T14:29:11;20.83;;;17.40;;
66087;SDS011;52872;52.994;6.940;2023-04-16T14:31:38;21.75;;;17.85;;